• Join FlightAware (Why Join?)
  • Login
  • US Flag 
05:13AM EDT


 

Airport Tracker/Info


-or-


 

Live Flight TrackerFlight Track Log ✈ EJA871 ✈ 22-Jun-2013 ✈ KTTN - KTTN

Flight Track Log - Related Links

Times and Time Zones

All times are in EDT time to prevent confusion due to time zone crossing. See the EJA871 flight status page for this flight to view local times or setup timezone preferences in your user account.

Time Position Orientation Groundspeed Altitude Reporting Facility
EDT Latitude Longitude Course Direction KTS MPH feet Rate Location/Type
11:46AM 40.2667 -74.8333 270° West 198 228 1,100  Level Philadelphia TRACON
11:47AM 40.2667 -74.9167 270° West 218 251 3,500 2,760 Climbing Philadelphia TRACON
11:48AM 40.2333 -75.0000 242° Southwest 243 280 6,900 1,740 Climbing Philadelphia TRACON
11:49AM 40.2000 -75.0667 237° Southwest 254 292 7,000 240 Climbing Philadelphia TRACON
11:50AM 40.1667 -75.1500 242° Southwest 252 290 7,400 1,440 Climbing Philadelphia TRACON
11:51AM 40.1333 -75.2333 242° Southwest 278 320 9,800 1,320 Climbing Philadelphia TRACON
11:53AM 40.0294 -75.4364 236° Southwest 287 330 12,000 1,260 Climbing New York Center
11:54AM 40.0194 -75.5333 262° West 278 320 14,300 2,760 Climbing New York Center
11:55AM 40.0342 -75.6319 281° West 274 315 17,700 2,640 Climbing New York Center
11:56AM 40.0447 -75.7275 278° West 290 334 19,600 2,040 Climbing New York Center
11:57AM 40.0422 -75.8386 268° West 303 349 21,800 1,140 Climbing New York Center
11:58AM 40.0389 -75.9631 268° West 325 374 22,000 60 Climbing New York Center
11:59AM 40.0331 -76.0928 267° West 348 400 22,000  Level New York Center
12:00PM 40.0269 -76.2278 267° West 354 407 22,000  Level New York Center
12:01PM 40.0256 -76.3444 269° West 338 389 22,000  Level New York Center
12:02PM 40.0247 -76.4472 269° West 313 360 22,000  Level New York Center
12:03PM 40.0261 -76.5506 271° West 298 343 22,100  Climbing New York Center
12:04PM 40.0250 -76.6561 269° West 286 329 22,000 -60 Descending New York Center
12:05PM 40.0253 -76.7756 270° West 305 351 22,000  Level New York Center
12:06PM 40.0272 -76.8978 271° West 328 377 22,000  Level New York Center
12:07PM 40.0256 -77.0114 269° West 328 377 22,000  Level New York Center
12:08PM 40.0272 -77.1389 271° West 340 391 22,000  Level New York Center
12:09PM 40.0219 -77.2714 267° West 353 406 22,000  Level New York Center
12:10PM 40.0525 -77.3964 288° West 353 406 22,000 -300 Level New York Center
12:11PM 40.1536 -77.3789 North 264 304 21,400 -1,320 Descending New York Center
12:12PM 40.2069 -77.2833 54° Northeast 243 280 19,400 -1,800 Descending New York Center
12:13PM 40.2000 -77.1439 94° East 294 338 17,800 -1,860 Descending New York Center
12:14PM 40.1853 -76.9878 97° East 363 418 15,800 -1,440 Descending New York Center
12:15PM 40.1742 -76.8425 96° East 395 455 15,000 -420 Descending New York Center
12:16PM 40.1603 -76.7031 97° East 395 455 15,000 -420 Level New York Center
12:17PM 40.1475 -76.5822 98° East 390 449 14,200 -1,140 Descending New York Center
12:18PM 40.1353 -76.4481 97° East 346 398 12,800 -1,380 Descending New York Center
12:19PM 40.1225 -76.3250 98° East 334 384 11,500 -900 Descending New York Center
12:20PM 40.1139 -76.1967 95° East 346 398 11,000 -600 Descending New York Center
12:21PM 40.1058 -76.0956 96° East 334 384 10,400 -960 Descending New York Center
12:22PM 40.0986 -75.9756 94° East 309 356 9,200 -1,080 Descending New York Center
12:23PM 40.0931 -75.8694 94° East 304 350 8,300 -840 Descending New York Center
12:24PM 40.1181 -75.7708 72° East 282 325 7,500 -840 Descending New York Center
12:25PM 40.1389 -75.6717 75° East 276 318 6,700 -840 Descending New York Center
12:26PM 40.1636 -75.5758 71° East 276 318 5,900 -840 Descending New York Center
12:27PM 40.1883 -75.4797 71° East 281 323 5,100 -480 Descending New York Center
12:28PM 40.2172 -75.3811 69° East 281 323 5,000 -60 Descending New York Center
12:29PM 40.2392 -75.2981 71° East 275 316 5,000 -300 Level New York Center
12:30PM 40.2608 -75.2208 70° East 250 288 4,400 -540 Descending New York Center
12:31PM 40.2808 -75.1350 73° East 219 252 4,000 -240 Descending New York Center
12:32PM 40.2922 -75.0539 80° East 219 252 4,000  Level New York Center
12:33PM 40.3011 -74.9811 81° East 219 252 4,000 5,400 Level New York Center
12:34PM 40.3083 -74.8944 84° East 229 264 15,000 -900 Climbing New York Center
12:36PM 40.3500 -74.7833 64° Northeast 194 223 1,700 -5,160 Descending Philadelphia TRACON
12:37PM 40.3000 -74.7667 166° South 153 176 900 -780 Descending Philadelphia TRACON
12:39PM 40.2667 -74.8000 217° Southwest  Level FlightAware Approximate
12:46PM 40.2767 -74.8135 217° Southwest  Level Estimated